Terminal Aerodrome Forecast
Issued by NWS

Home | Current Version | Previous Version | Text Only | Print | Product List | Glossary On
Versions: 1 2 3 4 5 6 7 8 9 10 11 12 13 14 15 16
000
FTAK31 PAJN 181100
TAFAJN
TAF
PAJN 181134Z 1812/1912 08009KT P6SM -RA FEW030 BKN050 OVC080
     FM181600 10011KT P6SM -RA SCT020 OVC040
     FM182000 11012KT 4SM -RA SCT015 OVC030
     FM190600 11017G25KT 3SM -RA BR SCT008 OVC030=

USA.gov is the U.S. government's official web portal to all federal, state and local government web resources and services.